createdAt,value
2023-01-08T00:01:32.645Z,47.03
2023-01-08T00:04:02.252Z,47.45
2023-01-08T00:06:32.198Z,48.40
2023-01-08T00:09:02.938Z,45.80
2023-01-08T00:11:32.362Z,47.47
2023-01-08T00:14:01.721Z,45.77
2023-01-08T00:16:31.017Z,47.00
2023-01-08T00:19:00.293Z,47.35
2023-01-08T00:21:29.633Z,42.75
2023-01-08T00:23:58.927Z,44.55
2023-01-08T00:26:28.178Z,43.00
2023-01-08T00:28:57.723Z,48.33
2023-01-08T00:31:27.082Z,43.35
2023-01-08T00:33:56.463Z,43.70
2023-01-08T00:36:25.700Z,45.50
2023-01-08T00:38:55.120Z,48.35
2023-01-08T00:41:24.532Z,47.80
2023-01-08T00:43:53.939Z,46.85
2023-01-08T00:46:23.274Z,49.10
2023-01-08T00:48:52.738Z,45.70
2023-01-08T00:51:22.065Z,44.87
2023-01-08T00:53:51.414Z,45.10
2023-01-08T00:56:20.730Z,46.73
2023-01-08T00:58:50.079Z,47.45
2023-01-08T01:01:20.138Z,44.20
2023-01-08T01:03:49.541Z,44.60
2023-01-08T01:06:18.822Z,40.40
2023-01-08T01:08:48.388Z,40.10
2023-01-08T01:11:19.500Z,45.00
2023-01-08T01:13:48.762Z,45.70
2023-01-08T01:16:18.381Z,44.90
2023-01-08T01:18:47.840Z,38.40
2023-01-08T01:21:19.399Z,40.37
2023-01-08T01:23:48.662Z,40.58
2023-01-08T01:26:18.719Z,44.55
2023-01-08T01:28:48.500Z,39.27
2023-01-08T01:31:18.236Z,38.55
2023-01-08T01:33:48.466Z,42.27
2023-01-08T01:36:18.719Z,41.27
2023-01-08T01:38:49.059Z,42.10
2023-01-08T01:41:23.372Z,43.60
2023-01-08T01:43:53.041Z,44.55
2023-01-08T01:46:31.773Z,41.60
2023-01-08T01:49:03.129Z,43.10
2023-01-08T01:51:33.098Z,42.40
2023-01-08T01:54:03.743Z,38.90
2023-01-08T01:56:33.934Z,39.95
2023-01-08T01:59:03.946Z,43.07
2023-01-08T02:01:34.054Z,39.10
2023-01-08T02:04:05.795Z,38.27
2023-01-08T02:06:37.297Z,42.07
2023-01-08T02:09:09.520Z,40.93
2023-01-08T02:11:42.138Z,40.73
2023-01-08T02:14:13.589Z,44.35
2023-01-08T02:16:46.225Z,44.27
2023-01-08T02:19:21.932Z,37.97
2023-01-08T02:21:56.308Z,37.73
2023-01-08T02:24:29.916Z,37.90
2023-01-08T02:26:59.542Z,40.70
2023-01-08T02:29:29.269Z,38.17
2023-01-08T02:31:58.594Z,38.93
2023-01-08T02:34:27.954Z,40.17
2023-01-08T02:36:57.200Z,35.90
2023-01-08T02:39:33.742Z,38.63
2023-01-08T02:42:09.210Z,36.65
2023-01-08T02:44:45.657Z,37.97
2023-01-08T02:47:19.837Z,35.40
2023-01-08T02:49:50.890Z,39.50
2023-01-08T02:52:20.707Z,35.17
2023-01-08T02:54:50.466Z,39.00
2023-01-08T02:57:20.103Z,33.95
2023-01-08T02:59:50.312Z,35.23
2023-01-08T03:02:19.748Z,36.57
2023-01-08T03:04:53.349Z,37.50
2023-01-08T03:07:22.573Z,37.80
2023-01-08T03:09:52.423Z,37.70
2023-01-08T03:12:24.754Z,35.70
2023-01-08T03:17:24.703Z,37.37
2023-01-08T03:19:55.797Z,37.05
2023-01-08T03:22:25.843Z,36.05
2023-01-08T03:24:56.738Z,34.17
2023-01-08T03:27:28.681Z,34.30
2023-01-08T03:29:58.949Z,34.38
2023-01-08T03:32:29.456Z,34.80
2023-01-08T03:35:00.076Z,36.55
2023-01-08T03:37:32.976Z,35.45
2023-01-08T03:40:05.311Z,33.65
2023-01-08T03:42:34.617Z,32.75
2023-01-08T03:45:04.314Z,33.07
2023-01-08T03:47:34.649Z,32.30
2023-01-08T03:50:06.573Z,34.90
2023-01-08T03:52:35.965Z,35.95
2023-01-08T03:55:05.953Z,40.85
2023-01-08T03:57:36.061Z,47.05
2023-01-08T04:00:06.691Z,42.55
2023-01-08T04:02:36.224Z,48.67
2023-01-08T04:05:06.703Z,41.65
2023-01-08T04:07:36.001Z,41.40
2023-01-08T04:10:05.881Z,39.87
2023-01-08T04:12:35.234Z,38.80
2023-01-08T04:15:05.194Z,34.30
2023-01-08T04:17:34.680Z,34.90
2023-01-08T04:20:04.340Z,35.97
2023-01-08T04:22:33.599Z,40.17
2023-01-08T04:25:03.083Z,37.40
2023-01-08T04:27:32.633Z,33.90
2023-01-08T04:30:01.959Z,36.17
2023-01-08T04:32:31.371Z,35.07
2023-01-08T04:35:00.609Z,37.35
2023-01-08T04:37:29.855Z,32.95
2023-01-08T04:39:59.133Z,39.03
2023-01-08T04:42:28.565Z,38.80
2023-01-08T04:44:57.974Z,38.00
2023-01-08T04:47:27.306Z,38.60
2023-01-08T04:49:56.523Z,38.80
2023-01-08T04:52:27.822Z,37.03
2023-01-08T04:54:57.159Z,39.50
2023-01-08T04:57:26.517Z,39.80
2023-01-08T04:59:55.921Z,35.33
2023-01-08T05:02:25.444Z,38.05
2023-01-08T05:04:54.842Z,34.25
2023-01-08T05:07:24.397Z,36.50
2023-01-08T05:09:53.826Z,32.95
2023-01-08T05:12:23.263Z,35.95
2023-01-08T05:14:52.523Z,34.50
2023-01-08T05:17:21.939Z,34.23
2023-01-08T05:19:51.141Z,34.53
2023-01-08T05:22:20.433Z,31.33
2023-01-08T05:24:49.685Z,32.60
2023-01-08T05:27:19.047Z,31.93
2023-01-08T05:29:48.932Z,33.05
2023-01-08T05:32:18.993Z,34.50
2023-01-08T05:34:48.540Z,32.75
2023-01-08T05:37:17.803Z,35.83
2023-01-08T05:39:47.181Z,33.37
2023-01-08T05:42:16.439Z,31.63
2023-01-08T05:44:45.817Z,33.00
2023-01-08T05:47:15.163Z,37.80
2023-01-08T05:49:44.570Z,33.60
2023-01-08T05:52:13.948Z,32.30
2023-01-08T05:54:43.162Z,35.00
2023-01-08T05:57:12.595Z,39.75
2023-01-08T05:59:41.852Z,36.90
2023-01-08T06:02:11.279Z,36.77
2023-01-08T06:04:40.655Z,36.85
2023-01-08T06:07:09.949Z,36.17
2023-01-08T06:09:39.260Z,35.77
2023-01-08T06:12:08.783Z,36.70
2023-01-08T06:14:38.149Z,38.10
2023-01-08T06:17:07.500Z,39.30
2023-01-08T06:19:36.821Z,35.90
2023-01-08T06:22:06.499Z,37.20
2023-01-08T06:24:35.841Z,38.10
2023-01-08T06:27:05.256Z,39.77
2023-01-08T06:29:34.766Z,38.10
2023-01-08T06:32:04.240Z,39.80
2023-01-08T06:34:33.459Z,38.70
2023-01-08T06:37:02.737Z,35.35
2023-01-08T06:39:32.139Z,37.23
2023-01-08T06:42:01.676Z,39.05
2023-01-08T06:44:31.392Z,37.65
2023-01-08T06:47:00.786Z,40.75
2023-01-08T06:49:30.205Z,38.90
2023-01-08T06:51:59.454Z,39.30
2023-01-08T06:54:28.888Z,43.85
2023-01-08T06:56:58.259Z,40.90
2023-01-08T06:59:27.669Z,45.00
2023-01-08T07:01:57.162Z,44.83
2023-01-08T07:04:26.747Z,44.45
2023-01-08T07:06:56.180Z,44.60
2023-01-08T07:09:25.421Z,41.70
2023-01-08T07:11:55.101Z,43.40
2023-01-08T07:14:24.547Z,46.23
2023-01-08T07:16:54.005Z,47.85
2023-01-08T07:19:24.289Z,52.03
2023-01-08T07:21:53.679Z,51.07
2023-01-08T07:24:22.942Z,45.75
2023-01-08T07:26:52.365Z,55.33
2023-01-08T07:29:21.745Z,52.17
2023-01-08T07:31:51.120Z,47.73
2023-01-08T07:34:20.556Z,49.50
2023-01-08T07:36:50.017Z,49.90
2023-01-08T07:39:19.403Z,48.05
2023-01-08T07:41:48.899Z,47.27
2023-01-08T07:44:19.539Z,47.43
2023-01-08T07:46:49.256Z,48.97
2023-01-08T07:49:18.548Z,47.30
2023-01-08T07:51:49.711Z,47.80
2023-01-08T07:54:19.070Z,50.15
2023-01-08T07:56:49.402Z,43.85
2023-01-08T07:59:18.675Z,48.80
2023-01-08T08:01:48.353Z,44.77
2023-01-08T08:04:18.726Z,46.00
2023-01-08T08:06:48.017Z,44.40
2023-01-08T08:09:17.433Z,45.00
2023-01-08T08:11:46.885Z,44.10
2023-01-08T08:14:16.224Z,48.05
2023-01-08T08:16:45.676Z,45.00
2023-01-08T08:19:15.533Z,44.30
2023-01-08T08:21:44.921Z,44.50
2023-01-08T08:24:15.655Z,40.55
2023-01-08T08:26:44.925Z,44.90
2023-01-08T08:29:14.639Z,42.50
2023-01-08T08:31:44.031Z,44.20
2023-01-08T08:34:13.297Z,43.40
2023-01-08T08:36:42.576Z,44.57
2023-01-08T08:39:11.969Z,47.20
2023-01-08T08:41:41.815Z,44.60
2023-01-08T08:44:11.161Z,45.50
2023-01-08T08:46:40.743Z,47.65
2023-01-08T08:49:10.141Z,45.20
2023-01-08T08:51:40.341Z,40.70
2023-01-08T08:54:10.598Z,39.60
2023-01-08T08:56:40.170Z,45.80
2023-01-08T08:59:12.516Z,41.37
2023-01-08T09:01:42.022Z,41.75
2023-01-08T09:04:11.756Z,46.50
2023-01-08T09:06:41.234Z,43.00
2023-01-08T09:09:10.720Z,43.95
2023-01-08T09:11:40.951Z,42.55
2023-01-08T09:14:10.813Z,44.53
2023-01-08T09:16:40.901Z,42.40
2023-01-08T09:19:10.894Z,40.80
2023-01-08T09:21:40.260Z,38.13
2023-01-08T09:24:09.649Z,37.13
2023-01-08T09:26:39.919Z,43.10
2023-01-08T09:29:09.822Z,38.40
2023-01-08T09:31:39.795Z,39.47
2023-01-08T09:34:09.126Z,38.80
2023-01-08T09:36:38.561Z,38.47
2023-01-08T09:39:08.251Z,41.45
2023-01-08T09:41:39.291Z,39.83
2023-01-08T09:44:13.801Z,44.53
2023-01-08T09:46:43.825Z,41.23
2023-01-08T09:49:16.902Z,40.47
2023-01-08T09:51:46.568Z,42.35
2023-01-08T09:54:17.109Z,42.20
2023-01-08T09:56:47.101Z,42.93
2023-01-08T09:59:17.697Z,41.87
2023-01-08T10:01:47.930Z,38.17
2023-01-08T10:04:18.215Z,39.43
2023-01-08T10:06:51.750Z,41.47
2023-01-08T10:09:24.062Z,40.00
2023-01-08T10:11:54.354Z,40.20
2023-01-08T10:14:25.120Z,39.23
2023-01-08T10:16:57.489Z,39.88
2023-01-08T10:19:27.053Z,38.23
2023-01-08T10:21:57.016Z,36.23
2023-01-08T10:24:33.554Z,38.23
2023-01-08T10:27:07.054Z,35.20
2023-01-08T10:29:39.217Z,39.27
2023-01-08T10:32:11.072Z,36.70
2023-01-08T10:34:42.855Z,36.83
2023-01-08T10:37:17.848Z,37.40
2023-01-08T10:39:48.318Z,38.40
2023-01-08T10:42:19.133Z,35.40
2023-01-08T10:44:55.455Z,37.50
2023-01-08T10:47:25.585Z,35.70
2023-01-08T10:49:55.594Z,38.03
2023-01-08T10:52:26.507Z,35.50
2023-01-08T10:54:56.212Z,34.90
2023-01-08T10:57:27.182Z,37.35
2023-01-08T10:59:57.338Z,36.40
2023-01-08T11:02:32.126Z,32.97
2023-01-08T11:05:01.895Z,36.43
2023-01-08T11:07:34.724Z,35.80
2023-01-08T11:10:05.056Z,35.87
2023-01-08T11:12:39.422Z,36.33
2023-01-08T11:15:32.770Z,37.58
2023-01-08T11:18:12.858Z,33.33
2023-01-08T11:20:42.206Z,34.98
2023-01-08T11:23:16.683Z,34.18
2023-01-08T11:25:49.377Z,34.05
2023-01-08T11:28:23.848Z,35.23
2023-01-08T11:30:54.959Z,30.68
2023-01-08T11:33:26.708Z,37.25
2023-01-08T11:35:59.078Z,33.85
2023-01-08T11:38:28.319Z,32.70
2023-01-08T11:41:05.327Z,38.00
2023-01-08T11:43:39.741Z,35.83
2023-01-08T11:46:15.333Z,34.13
2023-01-08T11:49:14.452Z,36.55
2023-01-08T11:51:51.050Z,37.42
2023-01-08T11:54:26.973Z,36.60
2023-01-08T11:57:08.799Z,33.88
2023-01-08T11:59:46.930Z,35.30
2023-01-08T12:02:20.428Z,35.90
2023-01-08T12:04:55.850Z,32.90
2023-01-08T12:07:25.728Z,35.60
2023-01-08T12:09:59.048Z,34.05
2023-01-08T12:12:34.078Z,35.92
2023-01-08T12:15:09.237Z,34.25
2023-01-08T12:17:53.484Z,41.13
2023-01-08T12:20:28.990Z,35.75
2023-01-08T12:23:05.685Z,38.80
2023-01-08T12:25:42.068Z,35.80
2023-01-08T12:28:17.600Z,35.65
2023-01-08T12:30:59.186Z,33.18
2023-01-08T12:33:33.022Z,37.48
2023-01-08T12:36:05.565Z,33.53
2023-01-08T12:38:36.740Z,36.75
2023-01-08T12:41:07.121Z,35.13
2023-01-08T12:43:39.860Z,35.95
2023-01-08T12:46:12.452Z,33.98
2023-01-08T12:48:42.034Z,32.58
2023-01-08T12:51:17.627Z,35.68
2023-01-08T12:53:53.414Z,32.63
2023-01-08T12:56:26.983Z,35.08
2023-01-08T12:59:06.166Z,36.05
2023-01-08T13:01:40.608Z,34.53
2023-01-08T13:04:12.410Z,33.60
2023-01-08T13:06:52.843Z,30.77
2023-01-08T13:09:24.136Z,34.15
2023-01-08T13:11:55.103Z,44.58
2023-01-08T13:14:26.763Z,33.35
2023-01-08T13:19:26.285Z,33.80
2023-01-08T13:21:56.478Z,32.73
2023-01-08T13:24:29.154Z,33.63
2023-01-08T13:27:10.265Z,34.50
2023-01-08T13:29:40.740Z,34.05
2023-01-08T13:32:24.130Z,32.88
2023-01-08T13:35:02.024Z,35.65
2023-01-08T13:37:32.108Z,32.60
2023-01-08T13:40:06.371Z,35.73
2023-01-08T13:42:35.800Z,35.52
2023-01-08T13:45:05.902Z,34.95
2023-01-08T13:47:36.080Z,32.55
2023-01-08T13:50:14.039Z,32.90
2023-01-08T13:52:45.289Z,32.78
2023-01-08T13:55:16.656Z,31.70
2023-01-08T13:57:48.252Z,33.05
2023-01-08T14:00:24.178Z,31.60
2023-01-08T14:02:54.682Z,30.62
2023-01-08T14:05:27.316Z,29.32
2023-01-08T14:07:57.229Z,29.65
2023-01-08T14:10:26.934Z,34.65
2023-01-08T14:13:01.371Z,31.17
2023-01-08T14:15:30.834Z,32.88
2023-01-08T14:18:01.116Z,32.90
2023-01-08T14:20:32.264Z,30.48
2023-01-08T14:23:02.365Z,35.38
2023-01-08T14:25:32.559Z,32.63
2023-01-08T14:28:03.130Z,33.85
2023-01-08T14:30:32.875Z,32.65
2023-01-08T14:33:02.580Z,32.40
2023-01-08T14:35:33.602Z,33.08
2023-01-08T14:38:05.069Z,36.42
2023-01-08T14:40:38.081Z,34.55
2023-01-08T14:43:09.459Z,34.43
2023-01-08T14:45:40.119Z,36.60
2023-01-08T14:48:12.009Z,34.35
2023-01-08T14:50:42.401Z,38.67
2023-01-08T14:53:24.110Z,36.65
2023-01-08T14:55:55.304Z,40.35
2023-01-08T14:58:26.185Z,35.20
2023-01-08T15:00:56.941Z,35.70
2023-01-08T15:03:31.198Z,46.87
2023-01-08T15:06:01.853Z,57.35
2023-01-08T15:08:35.843Z,105.63
2023-01-08T15:11:06.376Z,88.97
2023-01-08T15:13:37.884Z,76.40
2023-01-08T15:16:09.523Z,57.38
2023-01-08T15:18:43.597Z,55.45
2023-01-08T15:21:17.344Z,58.23
2023-01-08T15:23:48.745Z,56.02
2023-01-08T15:26:18.275Z,47.80
2023-01-08T15:28:51.214Z,45.57
2023-01-08T15:31:24.289Z,46.08
2023-01-08T15:33:53.992Z,44.57
2023-01-08T15:36:23.693Z,44.73
2023-01-08T15:38:53.112Z,42.38
2023-01-08T15:41:47.145Z,39.97
2023-01-08T15:44:16.790Z,37.58
2023-01-08T15:46:46.145Z,35.88
2023-01-08T15:49:16.147Z,39.53
2023-01-08T15:51:46.867Z,33.50
2023-01-08T15:54:16.243Z,36.70
2023-01-08T15:56:45.703Z,36.30
2023-01-08T15:59:15.001Z,34.83
2023-01-08T16:01:44.443Z,34.67
2023-01-08T16:04:13.864Z,40.03
2023-01-08T16:06:43.350Z,36.47
2023-01-08T16:09:13.094Z,34.27
2023-01-08T16:11:42.996Z,34.03
2023-01-08T16:14:13.477Z,38.03
2023-01-08T16:16:43.105Z,39.07
2023-01-08T16:19:13.076Z,38.27
2023-01-08T16:21:46.321Z,40.90
2023-01-08T16:24:15.908Z,38.85
2023-01-08T16:26:45.277Z,38.43
2023-01-08T16:29:14.559Z,33.03
2023-01-08T16:31:45.339Z,34.10
2023-01-08T16:34:15.958Z,35.90
2023-01-08T16:36:45.303Z,38.00
2023-01-08T16:39:14.851Z,35.60
2023-01-08T16:41:44.926Z,37.93
2023-01-08T16:44:17.734Z,39.97
2023-01-08T16:46:47.127Z,38.50
2023-01-08T16:49:16.579Z,40.27
2023-01-08T16:51:45.937Z,35.68
2023-01-08T16:54:16.044Z,38.05
2023-01-08T16:56:45.672Z,39.77
2023-01-08T16:59:22.757Z,37.97
2023-01-08T17:01:52.957Z,41.75
2023-01-08T17:04:22.392Z,40.05
2023-01-08T17:06:51.754Z,41.73
2023-01-08T17:09:21.416Z,44.90
2023-01-08T17:14:54.737Z,43.93
2023-01-08T17:17:41.786Z,45.30
2023-01-08T17:20:12.540Z,44.73
2023-01-08T17:22:46.301Z,45.20
2023-01-08T17:25:16.314Z,47.23
2023-01-08T17:27:47.980Z,51.58
2023-01-08T17:30:18.695Z,48.05
2023-01-08T17:32:48.597Z,44.05
2023-01-08T17:35:18.690Z,49.50
2023-01-08T17:37:48.148Z,49.00
2023-01-08T17:40:17.846Z,45.65
2023-01-08T17:42:47.741Z,43.57
2023-01-08T17:45:17.289Z,49.27
2023-01-08T17:47:46.863Z,40.60
2023-01-08T17:50:17.737Z,43.05
2023-01-08T17:52:50.668Z,39.25
2023-01-08T17:55:20.226Z,42.90
2023-01-08T17:57:49.653Z,35.57
2023-01-08T18:00:20.017Z,39.07
2023-01-08T18:02:49.784Z,39.40
2023-01-08T18:05:21.482Z,37.47
2023-01-08T18:07:51.492Z,39.60
2023-01-08T18:10:20.901Z,40.75
2023-01-08T18:12:50.329Z,39.30
2023-01-08T18:15:20.162Z,37.00
2023-01-08T18:17:49.870Z,36.33
2023-01-08T18:20:19.908Z,33.25
2023-01-08T18:22:50.650Z,39.50
2023-01-08T18:25:20.327Z,35.90
2023-01-08T18:27:49.922Z,43.25
2023-01-08T18:30:19.801Z,35.65
2023-01-08T19:00:10.722Z,38.65
